createdAt,value
2019-04-22T00:01:50.062Z,97309.22
2019-04-22T00:04:29.967Z,97305.17
2019-04-22T00:07:12.452Z,97300.31
2019-04-22T00:09:44.464Z,97305.51
2019-04-22T00:12:16.275Z,97298.48
2019-04-22T00:14:28.309Z,97299.58
2019-04-22T00:17:08.625Z,97296.97
2019-04-22T00:19:36.036Z,97293.98
2019-04-22T00:22:08.035Z,97292.95
2019-04-22T00:24:30.695Z,97291.62
2019-04-22T00:27:05.228Z,97286.48
2019-04-22T00:29:49.341Z,97290.86
2019-04-22T00:32:05.008Z,97282.72
2019-04-22T00:34:35.667Z,97286.30
2019-04-22T00:37:02.299Z,97285.77
2019-04-22T00:39:39.849Z,97277.61
2019-04-22T00:42:01.857Z,97278.75
2019-04-22T00:44:35.442Z,97274.73
2019-04-22T00:47:05.697Z,97266.60
2019-04-22T00:52:03.714Z,97267.77
2019-04-22T00:54:32.908Z,97266.19
2019-04-22T00:56:59.216Z,97262.95
2019-04-22T00:59:23.351Z,97261.62
2019-04-22T01:01:58.871Z,97258.42
2019-04-22T01:04:27.977Z,97259.84
2019-04-22T01:06:45.611Z,97259.88
2019-04-22T01:09:17.442Z,97259.10
2019-04-22T01:11:47.167Z,97260.49
2019-04-22T01:14:17.770Z,97258.06
2019-04-22T01:16:42.936Z,97254.83
2019-04-22T01:19:08.598Z,97251.01
2019-04-22T01:21:42.181Z,97245.31
2019-04-22T01:24:05.836Z,97243.69
2019-04-22T01:26:30.103Z,97243.43
2019-04-22T01:28:59.883Z,97239.93
2019-04-22T01:31:19.151Z,97238.31
2019-04-22T01:33:47.655Z,97232.64
2019-04-22T01:36:30.539Z,97236.21
2019-04-22T01:39:02.010Z,97233.30
2019-04-22T01:41:32.424Z,97232.77
2019-04-22T01:44:05.765Z,97234.98
2019-04-22T01:46:32.349Z,97238.02
2019-04-22T01:49:01.426Z,97228.53
2019-04-22T01:51:35.452Z,97229.92
2019-04-22T01:53:57.957Z,97233.22
2019-04-22T01:56:24.501Z,97226.71
2019-04-22T01:58:44.203Z,97225.67
2019-04-22T02:01:27.501Z,97222.20
2019-04-22T02:03:46.777Z,97221.14
2019-04-22T02:06:28.292Z,97216.83
2019-04-22T02:11:24.160Z,97215.55
2019-04-22T02:13:44.733Z,97206.33
2019-04-22T02:16:16.164Z,97207.17
2019-04-22T02:21:07.386Z,97200.95
2019-04-22T02:28:42.535Z,97195.55
2019-04-22T02:38:51.326Z,97185.34
2019-04-22T02:43:49.217Z,97180.77
2019-04-22T02:48:45.952Z,97179.45
2019-04-22T02:51:02.509Z,97179.47
2019-04-22T02:56:04.917Z,97172.73
2019-04-22T02:58:44.933Z,97167.05
2019-04-22T03:01:01.303Z,97159.73
2019-04-22T03:03:31.180Z,97164.96
2019-04-22T03:06:05.311Z,97161.98
2019-04-22T03:08:25.329Z,97167.16
2019-04-22T03:10:56.663Z,97155.77
2019-04-22T03:15:50.923Z,97158.53
2019-04-22T03:18:25.722Z,97157.20
2019-04-22T03:20:50.082Z,97147.98
2019-04-22T03:28:10.219Z,97139.09
2019-04-22T03:33:16.319Z,97130.99
2019-04-22T03:38:32.848Z,97129.41
2019-04-22T03:40:54.839Z,97129.14
2019-04-22T03:45:37.832Z,97129.95
2019-04-22T03:48:02.787Z,97120.19
2019-04-22T03:55:38.378Z,97122.67
2019-04-22T04:00:35.563Z,97115.67
2019-04-22T04:10:35.479Z,97119.92
2019-04-22T04:22:58.997Z,97109.95
2019-04-22T04:28:10.598Z,97106.42
2019-04-22T04:30:29.874Z,97108.59
2019-04-22T04:35:25.381Z,97115.38
2019-04-22T04:42:46.402Z,97108.56
2019-04-22T04:47:49.332Z,97105.09
2019-04-22T04:55:17.537Z,97101.52
2019-04-22T04:57:43.498Z,97100.71
2019-04-22T05:00:32.760Z,97100.16
2019-04-22T05:02:44.869Z,97100.14
2019-04-22T05:07:36.185Z,97099.05
2019-04-22T05:12:52.994Z,97093.88
2019-04-22T05:15:00.815Z,97097.12
2019-04-22T05:17:25.290Z,97086.20
2019-04-22T05:19:58.267Z,97088.09
2019-04-22T05:22:21.009Z,97088.34
2019-04-22T05:24:56.292Z,97090.77
2019-04-22T05:27:20.475Z,97083.16
2019-04-22T05:30:00.642Z,97089.11
2019-04-22T05:32:22.773Z,97082.81
2019-04-22T05:34:40.148Z,97082.79
2019-04-22T05:37:11.274Z,97087.09
2019-04-22T05:39:41.539Z,97085.71
2019-04-22T05:42:10.425Z,97084.27
2019-04-22T05:44:34.416Z,97091.03
2019-04-22T05:47:02.954Z,97087.45
2019-04-22T05:49:31.270Z,97089.03
2019-04-22T05:51:54.625Z,97089.53
2019-04-22T05:54:27.335Z,97088.40
2019-04-22T05:56:53.343Z,97087.20
2019-04-22T05:59:24.437Z,97083.91
2019-04-22T06:02:01.411Z,97084.66
2019-04-22T06:04:25.643Z,97090.03
2019-04-22T06:06:47.951Z,97085.89
2019-04-22T06:09:26.070Z,97084.70
2019-04-22T06:11:50.939Z,97076.48
2019-04-22T06:14:20.042Z,97075.02
2019-04-22T06:16:53.974Z,97070.58
2019-04-22T06:19:21.498Z,97075.95
2019-04-22T06:22:07.138Z,97074.48
2019-04-22T06:24:23.607Z,97073.85
2019-04-22T06:26:51.841Z,97068.59
2019-04-22T06:29:16.611Z,97073.66
2019-04-22T06:32:05.505Z,97069.98
2019-04-22T06:34:17.798Z,97070.97
2019-04-22T06:36:45.183Z,97071.16
2019-04-22T06:39:14.304Z,97067.24
2019-04-22T06:41:43.645Z,97066.28
2019-04-22T06:44:16.164Z,97071.09
2019-04-22T06:46:37.835Z,97069.89
2019-04-22T06:49:03.139Z,97068.70
2019-04-22T06:51:33.083Z,97068.54
2019-04-22T06:54:02.889Z,97065.43
2019-04-22T06:56:27.596Z,97061.20
2019-04-22T06:58:59.107Z,97049.34
2019-04-22T07:03:53.939Z,97050.41
2019-04-22T07:06:33.439Z,97047.80
2019-04-22T07:11:21.788Z,97043.07
2019-04-22T07:13:55.292Z,97045.37
2019-04-22T07:16:18.612Z,97035.08
2019-04-22T07:19:02.438Z,97033.25
2019-04-22T07:21:12.430Z,97035.73
2019-04-22T07:26:08.702Z,97024.42
2019-04-22T07:28:37.239Z,97026.89
2019-04-22T07:31:10.286Z,97019.83
2019-04-22T07:33:43.858Z,97023.84
2019-04-22T07:38:31.085Z,97014.68
2019-04-22T07:41:00.559Z,97018.73
2019-04-22T07:46:00.011Z,97002.87
2019-04-22T07:48:48.123Z,97001.30
2019-04-22T07:51:02.875Z,96999.95
2019-04-22T07:53:23.019Z,96998.22
2019-04-22T07:56:01.372Z,96997.42
2019-04-22T07:58:24.140Z,96994.80
2019-04-22T08:00:55.941Z,96991.91
2019-04-22T08:03:31.527Z,96989.81
2019-04-22T08:06:02.569Z,96990.75
2019-04-22T08:10:48.629Z,96994.55
2019-04-22T08:13:17.230Z,96989.23
2019-04-22T08:15:52.453Z,96987.97
2019-04-22T08:18:26.081Z,96981.05
2019-04-22T08:20:42.762Z,96977.40
2019-04-22T08:25:40.222Z,96965.20
2019-04-22T08:28:13.368Z,96964.45
2019-04-22T08:30:40.770Z,96963.61
2019-04-22T08:33:09.671Z,96958.06
2019-04-22T08:35:52.250Z,96959.46
2019-04-22T08:38:06.951Z,96954.67
2019-04-22T08:40:36.385Z,96956.41
2019-04-22T08:43:15.583Z,96950.94
2019-04-22T08:45:38.446Z,96956.58
2019-04-22T08:48:01.808Z,96941.86
2019-04-22T08:50:35.059Z,96939.92
2019-04-22T08:53:05.929Z,96941.44
2019-04-22T08:55:33.975Z,96935.16
2019-04-22T08:58:16.539Z,96933.17
2019-04-22T09:00:30.962Z,96924.10
2019-04-22T09:02:59.497Z,96928.30
2019-04-22T09:05:42.434Z,96926.90
2019-04-22T09:07:52.749Z,96922.05
2019-04-22T09:10:25.696Z,96920.91
2019-04-22T09:12:57.786Z,96917.41
2019-04-22T09:15:20.722Z,96912.03
2019-04-22T09:17:47.829Z,96906.02
2019-04-22T09:20:18.375Z,96904.25
2019-04-22T09:22:41.065Z,96900.27
2019-04-22T09:25:22.175Z,96900.84
2019-04-22T09:27:45.897Z,96893.55
2019-04-22T09:30:17.008Z,96882.55
2019-04-22T09:32:44.921Z,96886.68
2019-04-22T09:35:09.450Z,96879.56
2019-04-22T09:37:42.083Z,96884.72
2019-04-22T09:42:39.758Z,96873.82
2019-04-22T09:45:05.761Z,96869.77
2019-04-22T09:47:33.692Z,96871.05
2019-04-22T09:50:03.799Z,96866.85
2019-04-22T09:52:32.953Z,96863.78
2019-04-22T09:55:08.248Z,96861.60
2019-04-22T09:57:24.963Z,96851.14
2019-04-22T10:02:39.541Z,96843.75
2019-04-22T10:05:02.111Z,96835.89
2019-04-22T10:07:21.009Z,96828.23
2019-04-22T10:09:59.673Z,96827.17
2019-04-22T10:12:26.356Z,96824.35
2019-04-22T10:14:52.657Z,96820.90
2019-04-22T10:17:15.532Z,96816.42
2019-04-22T10:22:19.268Z,96804.78
2019-04-22T10:24:39.271Z,96801.20
2019-04-22T10:27:07.758Z,96786.52
2019-04-22T10:29:48.044Z,96788.75
2019-04-22T10:32:06.761Z,96768.85
2019-04-22T10:34:26.344Z,96768.85
2019-04-22T10:36:44.022Z,96775.63
2019-04-22T10:39:08.806Z,96771.18
2019-04-22T10:41:36.648Z,96773.83
2019-04-22T10:44:03.733Z,96769.52
2019-04-22T10:46:30.643Z,96766.42
2019-04-22T10:48:57.986Z,96759.98
2019-04-22T10:51:24.880Z,96752.52
2019-04-22T10:53:51.580Z,96744.80
2019-04-22T10:56:18.907Z,96741.61
2019-04-22T10:58:46.664Z,96738.86
2019-04-22T11:01:13.742Z,96741.95
2019-04-22T11:03:41.608Z,96734.28
2019-04-22T11:06:09.658Z,96727.52
2019-04-22T11:08:44.531Z,96726.23
2019-04-22T11:11:18.975Z,96731.27
2019-04-22T11:13:35.650Z,96724.75
2019-04-22T11:16:03.495Z,96725.34
2019-04-22T11:18:31.557Z,96718.24
2019-04-22T11:20:59.754Z,96715.72
2019-04-22T11:23:27.037Z,96710.81
2019-04-22T11:25:54.097Z,96712.08
2019-04-22T11:28:20.912Z,96715.28
2019-04-22T11:30:48.233Z,96709.39
2019-04-22T11:33:16.251Z,96707.22
2019-04-22T11:35:43.774Z,96705.06
2019-04-22T11:38:10.823Z,96699.28
2019-04-22T11:40:40.586Z,96692.73
2019-04-22T11:43:06.286Z,96690.16
2019-04-22T11:45:33.232Z,96688.31
2019-04-22T11:48:01.398Z,96684.55
2019-04-22T11:50:30.080Z,96689.70
2019-04-22T11:53:00.769Z,96679.20
2019-04-22T11:55:28.740Z,96684.95
2019-04-22T11:57:56.209Z,96671.88
2019-04-22T12:00:30.747Z,96676.23
2019-04-22T12:02:58.825Z,96672.84
2019-04-22T12:05:26.007Z,96669.70
2019-04-22T12:07:53.185Z,96664.34
2019-04-22T12:10:29.625Z,96667.11
2019-04-22T12:12:52.008Z,96652.02
2019-04-22T12:15:20.351Z,96658.55
2019-04-22T12:17:47.145Z,96647.63
2019-04-22T12:20:16.033Z,96645.27
2019-04-22T12:22:43.047Z,96634.12
2019-04-22T12:25:12.375Z,96634.12
2019-04-22T12:27:39.150Z,96639.05
2019-04-22T12:30:06.906Z,96630.53
2019-04-22T12:32:33.608Z,96628.14
2019-04-22T12:35:01.804Z,96618.84
2019-04-22T12:37:39.899Z,96623.22
2019-04-22T12:40:00.365Z,96623.22
2019-04-22T12:42:27.282Z,96613.92
2019-04-22T12:44:54.218Z,96608.98
2019-04-22T12:47:22.204Z,96605.23
2019-04-22T12:49:56.135Z,96594.53
2019-04-22T12:52:26.662Z,96592.16
2019-04-22T12:54:46.927Z,96589.38
2019-04-22T12:57:14.709Z,96589.38
2019-04-22T12:59:41.870Z,96575.27
2019-04-22T13:02:09.162Z,96575.27
2019-04-22T13:04:36.263Z,96577.64
2019-04-22T13:07:03.907Z,96573.06
2019-04-22T13:09:31.605Z,96577.20
2019-04-22T13:11:59.240Z,96564.51
2019-04-22T13:14:27.235Z,96557.17
2019-04-22T13:16:55.089Z,96558.55
2019-04-22T13:19:23.496Z,96550.23
2019-04-22T13:21:51.027Z,96553.02
2019-04-22T13:24:19.850Z,96545.91
2019-04-22T13:26:46.445Z,96530.69
2019-04-22T13:29:14.652Z,96530.69
2019-04-22T13:31:42.531Z,96528.48
2019-04-22T13:34:10.526Z,96525.52
2019-04-22T13:36:40.078Z,96523.90
2019-04-22T13:39:07.100Z,96520.29
2019-04-22T13:44:02.533Z,96510.00
2019-04-22T13:46:31.723Z,96506.75
2019-04-22T13:49:25.575Z,96512.04
2019-04-22T13:52:04.171Z,96508.27
2019-04-22T13:53:53.454Z,96517.23
2019-04-22T13:56:43.151Z,96504.72
2019-04-22T13:59:04.594Z,96499.09
2019-04-22T14:01:24.856Z,96497.41
2019-04-22T14:04:10.278Z,96494.74
2019-04-22T14:06:38.656Z,96481.02
2019-04-22T14:09:07.463Z,96475.05
2019-04-22T14:11:41.589Z,96474.50
2019-04-22T14:14:02.996Z,96479.21
2019-04-22T14:16:31.026Z,96482.42
2019-04-22T14:18:58.188Z,96473.91
2019-04-22T14:21:25.186Z,96471.12
2019-04-22T14:23:53.010Z,96469.22
2019-04-22T14:26:19.746Z,96461.31
2019-04-22T14:28:47.984Z,96458.96
2019-04-22T14:31:14.896Z,96462.38
2019-04-22T14:33:46.296Z,96461.25
2019-04-22T14:36:11.682Z,96455.13
2019-04-22T14:38:39.724Z,96447.39
2019-04-22T14:41:08.269Z,96445.28
2019-04-22T14:44:23.316Z,96442.13
2019-04-22T14:46:27.840Z,96441.37
2019-04-22T14:48:57.653Z,96433.09
2019-04-22T14:51:22.362Z,96434.91
2019-04-22T14:53:44.851Z,96431.02
2019-04-22T14:55:58.463Z,96431.64
2019-04-22T14:58:26.749Z,96423.91
2019-04-22T15:00:55.179Z,96420.54
2019-04-22T15:03:22.038Z,96415.20
2019-04-22T15:05:48.616Z,96414.25
2019-04-22T15:08:15.447Z,96407.50
2019-04-22T15:10:42.366Z,96414.05
2019-04-22T15:13:09.547Z,96411.48
2019-04-22T15:15:52.802Z,96410.48
2019-04-22T15:18:53.788Z,96412.27
2019-04-22T15:21:22.841Z,96409.48
2019-04-22T15:23:50.778Z,96409.88
2019-04-22T15:26:17.579Z,96406.52
2019-04-22T15:28:45.197Z,96405.32
2019-04-22T15:31:13.268Z,96401.97
2019-04-22T15:33:41.529Z,96402.23
2019-04-22T15:36:09.913Z,96392.39
2019-04-22T15:38:36.671Z,96397.50
2019-04-22T15:41:04.889Z,96401.11
2019-04-22T15:43:35.075Z,96391.64
2019-04-22T15:46:03.688Z,96397.95
2019-04-22T15:48:30.952Z,96394.25
2019-04-22T15:50:58.467Z,96384.31
2019-04-22T15:53:25.477Z,96387.24
2019-04-22T15:55:52.557Z,96388.52
2019-04-22T15:58:19.747Z,96386.27
2019-04-22T16:00:57.667Z,96382.02
2019-04-22T16:03:16.345Z,96376.52
2019-04-22T16:05:44.119Z,96375.34
2019-04-22T16:08:11.014Z,96379.55
2019-04-22T16:10:37.959Z,96373.94
2019-04-22T16:13:11.239Z,96368.38
2019-04-22T16:15:34.332Z,96373.79
2019-04-22T16:18:03.341Z,96368.08
2019-04-22T16:20:30.052Z,96367.47
2019-04-22T16:23:22.362Z,96362.77
2019-04-22T16:25:55.472Z,96363.34
2019-04-22T16:28:22.060Z,96359.63
2019-04-22T16:30:48.959Z,96354.69
2019-04-22T16:33:17.209Z,96361.78
2019-04-22T16:35:44.954Z,96356.00
2019-04-22T16:38:12.870Z,96354.70
2019-04-22T16:40:40.884Z,96350.84
2019-04-22T16:43:09.661Z,96352.36
2019-04-22T16:45:36.248Z,96354.22
2019-04-22T16:48:04.297Z,96348.16
2019-04-22T16:50:31.028Z,96345.09
2019-04-22T16:52:57.913Z,96344.84
2019-04-22T16:55:24.812Z,96341.08
2019-04-22T16:57:52.574Z,96349.61
2019-04-22T17:00:20.641Z,96338.16
2019-04-22T17:02:58.573Z,96348.27
2019-04-22T17:05:43.360Z,96342.09
2019-04-22T17:08:10.291Z,96345.95
2019-04-22T17:10:37.810Z,96343.56
2019-04-22T17:13:11.014Z,96346.26
2019-04-22T17:15:33.441Z,96341.70
2019-04-22T17:18:01.280Z,96348.34
2019-04-22T17:20:29.224Z,96348.28
2019-04-22T17:22:55.955Z,96347.64
2019-04-22T17:25:22.700Z,96355.69
2019-04-22T17:27:49.741Z,96354.50
2019-04-22T17:30:16.728Z,96346.41
2019-04-22T17:32:46.785Z,96348.86
2019-04-22T17:35:12.468Z,96351.34
2019-04-22T17:37:40.997Z,96352.43
2019-04-22T17:40:24.409Z,96354.69
2019-04-22T17:42:57.878Z,96348.53
2019-04-22T17:45:41.914Z,96353.14
2019-04-22T17:48:31.214Z,96353.66
2019-04-22T17:51:03.521Z,96359.39
2019-04-22T17:53:26.123Z,96358.95
2019-04-22T17:55:57.501Z,96360.88
2019-04-22T17:58:31.111Z,96365.87
2019-04-22T18:00:52.185Z,96364.20
2019-04-22T18:03:13.179Z,96362.11
2019-04-22T18:05:38.360Z,96363.41
2019-04-22T18:08:20.426Z,96360.34
2019-04-22T18:10:40.728Z,96366.37
2019-04-22T18:13:20.407Z,96364.27
2019-04-22T18:15:43.846Z,96365.35
2019-04-22T18:18:12.322Z,96371.72
2019-04-22T18:20:38.160Z,96365.87
2019-04-22T18:22:56.950Z,96370.86
2019-04-22T18:25:35.133Z,96369.41
2019-04-22T18:28:13.801Z,96375.40
2019-04-22T18:30:30.062Z,96378.42
2019-04-22T18:33:07.495Z,96371.83
2019-04-22T18:35:35.263Z,96375.91
2019-04-22T18:38:07.686Z,96383.41
2019-04-22T18:40:37.074Z,96387.58
2019-04-22T18:43:04.801Z,96389.45
2019-04-22T18:45:39.805Z,96387.99
2019-04-22T18:47:54.618Z,96389.44
2019-04-22T18:50:36.984Z,96391.22
2019-04-22T18:53:24.542Z,96391.45
2019-04-22T18:55:55.580Z,96387.02
2019-04-22T18:58:22.833Z,96390.20
2019-04-22T19:00:39.660Z,96391.48
2019-04-22T19:03:15.611Z,96395.51
2019-04-22T19:06:00.773Z,96393.47
2019-04-22T19:08:29.132Z,96399.58
2019-04-22T19:11:03.587Z,96396.52
2019-04-22T19:16:09.982Z,96402.55
2019-04-22T19:18:29.818Z,96398.69
2019-04-22T19:20:58.098Z,96398.94
2019-04-22T19:23:17.928Z,96399.42
2019-04-22T19:25:43.844Z,96404.62
2019-04-22T19:28:23.906Z,96399.95
2019-04-22T19:30:47.742Z,96399.98
2019-04-22T19:33:18.863Z,96404.80
2019-04-22T19:35:35.098Z,96406.41
2019-04-22T19:38:04.867Z,96404.72
2019-04-22T19:40:52.857Z,96387.35
2019-04-22T19:43:10.374Z,96400.40
2019-04-22T19:45:37.749Z,96404.76
2019-04-22T19:48:16.653Z,96398.59
2019-04-22T19:50:45.561Z,96399.30
2019-04-22T19:53:15.524Z,96399.53
2019-04-22T19:55:39.239Z,96404.34
2019-04-22T19:58:05.514Z,96405.30
2019-04-22T20:00:41.959Z,96411.47
2019-04-22T20:03:42.806Z,96407.48
2019-04-22T20:06:13.084Z,96413.66
2019-04-22T20:08:42.356Z,96403.15
2019-04-22T20:11:13.308Z,96405.78
2019-04-22T20:13:44.242Z,96416.64
2019-04-22T20:15:57.510Z,96406.25
2019-04-22T20:18:39.432Z,96401.03
2019-04-22T20:21:04.592Z,96405.48
2019-04-22T20:23:25.696Z,96401.84
2019-04-22T20:25:51.410Z,96399.56
2019-04-22T20:28:31.080Z,96399.80
2019-04-22T20:30:56.233Z,96390.66
2019-04-22T20:33:29.131Z,96391.34
2019-04-22T20:35:58.222Z,96384.19
2019-04-22T20:38:28.067Z,96381.56
2019-04-22T20:40:49.160Z,96381.00
2019-04-22T20:43:28.922Z,96387.16
2019-04-22T20:45:51.165Z,96385.00
2019-04-22T20:48:07.907Z,96381.69
2019-04-22T20:50:48.140Z,96381.69
2019-04-22T20:53:21.410Z,96383.52
2019-04-22T20:55:42.199Z,96383.52
2019-04-22T20:58:11.663Z,96380.20
2019-04-22T21:00:36.546Z,96378.03
2019-04-22T21:02:59.826Z,96378.59
2019-04-22T21:05:30.233Z,96384.66
2019-04-22T21:08:11.433Z,96372.45
2019-04-22T21:10:31.385Z,96368.33
2019-04-22T21:13:01.755Z,96379.50
2019-04-22T21:15:36.912Z,96372.45
2019-04-22T21:18:00.830Z,96369.36
2019-04-22T21:20:36.505Z,96371.51
2019-04-22T21:23:00.066Z,96359.75
2019-04-22T21:25:24.246Z,96354.49
2019-04-22T21:28:06.620Z,96350.30
2019-04-22T21:30:26.420Z,96358.14
2019-04-22T21:32:53.717Z,96353.35
2019-04-22T21:35:44.083Z,96345.36
2019-04-22T21:38:03.035Z,96347.16
2019-04-22T21:40:27.407Z,96337.57
2019-04-22T21:42:59.835Z,96330.07
2019-04-22T21:45:21.718Z,96332.65
2019-04-22T21:48:04.987Z,96327.85
2019-04-22T21:50:44.810Z,96320.89
2019-04-22T21:53:01.187Z,96314.27
2019-04-22T21:55:23.856Z,96319.84
2019-04-22T21:58:19.524Z,96323.58
2019-04-22T22:01:16.972Z,96311.74
2019-04-22T22:03:38.126Z,96317.08
2019-04-22T22:05:58.792Z,96307.95
2019-04-22T22:08:40.365Z,96307.72
2019-04-22T22:11:03.691Z,96309.19
2019-04-22T22:13:34.512Z,96306.33
2019-04-22T22:15:56.360Z,96302.89
2019-04-22T22:18:23.480Z,96296.97
2019-04-22T22:21:19.179Z,96293.20
2019-04-22T22:23:31.828Z,96287.87
2019-04-22T22:25:55.766Z,96284.20
2019-04-22T22:28:40.292Z,96277.14
2019-04-22T22:31:02.013Z,96272.34
2019-04-22T22:33:24.183Z,96267.78
2019-04-22T22:35:53.301Z,96269.48
2019-04-22T22:38:19.632Z,96260.02
2019-04-22T22:40:35.762Z,96255.23
2019-04-22T22:43:05.418Z,96250.90
2019-04-22T22:45:37.427Z,96251.23
2019-04-22T22:48:23.822Z,96248.03
2019-04-22T22:50:44.608Z,96242.91
2019-04-22T22:53:21.242Z,96238.70
2019-04-22T22:55:47.701Z,96239.84
2019-04-22T22:58:16.206Z,96235.28
2019-04-22T23:00:39.686Z,96231.19
2019-04-22T23:05:45.336Z,96225.36
2019-04-22T23:08:07.738Z,96222.95
2019-04-22T23:10:39.976Z,96228.19
2019-04-22T23:13:20.492Z,96221.80
2019-04-22T23:15:27.796Z,96220.77
2019-04-22T23:17:41.449Z,96218.37
2019-04-22T23:20:09.702Z,96220.86
2019-04-22T23:23:02.784Z,96219.59
2019-04-22T23:25:32.822Z,96219.36
2019-04-22T23:28:12.537Z,96210.70
2019-04-22T23:30:51.867Z,96204.81
2019-04-22T23:33:40.984Z,96204.34
2019-04-22T23:36:13.686Z,96203.88
2019-04-22T23:38:51.887Z,96200.92
2019-04-22T23:41:51.326Z,96201.81
2019-04-22T23:44:02.074Z,96189.86
2019-04-22T23:46:27.830Z,96192.69
2019-04-22T23:49:04.556Z,96186.77
2019-04-22T23:51:32.784Z,96185.70
2019-04-22T23:54:10.614Z,96181.38
2019-04-22T23:56:29.404Z,96170.80
2019-04-22T23:59:04.755Z,96173.29
